createdAt,value
2023-10-29T00:04:37.066Z,87.60
2023-10-29T00:09:41.005Z,87.60
2023-10-29T00:14:46.073Z,87.60
2023-10-29T00:19:51.689Z,87.60
2023-10-29T00:24:55.219Z,87.60
2023-10-29T00:30:00.213Z,87.40
2023-10-29T00:35:03.808Z,87.50
2023-10-29T00:40:08.654Z,87.40
2023-10-29T00:45:13.668Z,87.50
2023-10-29T00:50:17.118Z,87.50
2023-10-29T00:55:20.915Z,87.40
2023-10-29T01:00:25.954Z,87.30
2023-10-29T01:05:29.568Z,87.50
2023-10-29T01:10:33.573Z,87.10
2023-10-29T01:15:38.885Z,87.10
2023-10-29T01:20:42.512Z,87.30
2023-10-29T01:25:46.453Z,87.20
2023-10-29T01:30:51.304Z,87.10
2023-10-29T01:35:55.104Z,87.20
2023-10-29T01:40:58.689Z,87.30
2023-10-29T01:46:04.011Z,87.40
2023-10-29T01:51:08.312Z,87.20
2023-10-29T01:56:11.950Z,87.10
2023-10-29T02:01:16.945Z,87.10
2023-10-29T02:06:20.885Z,87.10
2023-10-29T02:11:24.842Z,87.20
2023-10-29T02:16:29.903Z,86.90
2023-10-29T02:21:33.604Z,87.10
2023-10-29T02:26:38.632Z,87.30
2023-10-29T02:31:43.011Z,87.30
2023-10-29T02:36:46.515Z,87.20
2023-10-29T02:41:51.527Z,87.20
2023-10-29T02:46:54.980Z,87.10
2023-10-29T02:51:58.473Z,87.20
2023-10-29T02:57:04.456Z,87.20
2023-10-29T03:02:08.145Z,87.00
2023-10-29T03:07:11.657Z,87.00
2023-10-29T03:12:16.536Z,87.10
2023-10-29T03:17:20.023Z,87.30
2023-10-29T03:22:23.557Z,87.10
2023-10-29T03:27:29.013Z,86.90
2023-10-29T03:32:32.695Z,87.10
2023-10-29T03:37:36.361Z,87.00
2023-10-29T03:42:41.220Z,87.00
2023-10-29T03:47:44.964Z,87.10
2023-10-29T03:52:48.605Z,87.10
2023-10-29T03:57:53.439Z,86.80
2023-10-29T04:02:57.239Z,87.00
2023-10-29T04:08:01.192Z,87.30
2023-10-29T04:13:06.049Z,87.20
2023-10-29T04:18:09.544Z,87.20
2023-10-29T04:23:13.067Z,86.80
2023-10-29T04:28:18.039Z,87.00
2023-10-29T04:33:21.566Z,86.80
2023-10-29T04:38:25.134Z,87.20
2023-10-29T04:43:29.980Z,86.80
2023-10-29T04:48:33.630Z,87.10
2023-10-29T04:53:37.282Z,86.80
2023-10-29T04:58:42.140Z,86.80
2023-10-29T05:03:45.696Z,86.80
2023-10-29T05:08:49.473Z,87.00
2023-10-29T05:13:54.869Z,86.90
2023-10-29T05:18:58.535Z,87.00
2023-10-29T05:24:04.095Z,86.80
2023-10-29T05:29:09.093Z,86.60
2023-10-29T05:34:12.625Z,86.90
2023-10-29T05:39:17.413Z,86.90
2023-10-29T05:44:22.356Z,86.90
2023-10-29T05:49:25.772Z,86.90
2023-10-29T05:54:30.522Z,87.00
2023-10-29T05:59:35.467Z,86.80
2023-10-29T06:04:39.165Z,86.80
2023-10-29T06:09:42.781Z,86.90
2023-10-29T06:14:48.995Z,86.70
2023-10-29T06:19:52.884Z,86.80
2023-10-29T06:24:56.499Z,86.80
2023-10-29T06:30:01.649Z,86.70
2023-10-29T06:35:05.652Z,86.90
2023-10-29T06:40:10.670Z,86.70
2023-10-29T06:45:15.698Z,86.80
2023-10-29T06:50:19.922Z,86.60
2023-10-29T06:55:24.441Z,86.70
2023-10-29T07:00:30.465Z,86.40
2023-10-29T07:05:34.758Z,86.80
2023-10-29T07:10:38.487Z,86.80
2023-10-29T07:15:43.626Z,87.00
2023-10-29T07:20:47.302Z,86.80
2023-10-29T07:25:51.037Z,87.00
2023-10-29T07:30:55.975Z,87.10
2023-10-29T07:35:59.427Z,87.20
2023-10-29T07:41:03.346Z,87.00
2023-10-29T07:46:08.256Z,87.00
2023-10-29T07:51:14.717Z,87.00
2023-10-29T07:56:18.236Z,87.10
2023-10-29T08:01:23.430Z,87.00
2023-10-29T08:06:27.017Z,87.20
2023-10-29T08:11:30.577Z,87.30
2023-10-29T08:16:35.683Z,87.00
2023-10-29T08:21:39.128Z,87.00
2023-10-29T08:26:42.625Z,87.90
2023-10-29T08:31:47.597Z,87.90
2023-10-29T08:36:51.049Z,87.70
2023-10-29T08:41:55.019Z,87.70
2023-10-29T08:47:00.092Z,87.90
2023-10-29T08:52:03.969Z,87.70
2023-10-29T08:57:07.778Z,87.70
2023-10-29T09:02:12.650Z,87.90
2023-10-29T09:07:16.090Z,87.80
2023-10-29T09:12:19.569Z,88.00
2023-10-29T09:17:24.490Z,88.10
2023-10-29T09:22:28.132Z,87.90
2023-10-29T09:27:31.611Z,87.90
2023-10-29T09:32:36.881Z,88.30
2023-10-29T09:37:40.673Z,88.10
2023-10-29T09:42:53.055Z,88.40
2023-10-29T09:48:00.104Z,88.50
2023-10-29T09:53:04.418Z,88.10
2023-10-29T09:58:08.320Z,88.10
2023-10-29T10:03:13.355Z,88.30
2023-10-29T10:08:17.278Z,88.30
2023-10-29T10:13:20.752Z,88.70
2023-10-29T10:18:25.858Z,88.80
2023-10-29T10:23:29.460Z,88.90
2023-10-29T10:28:34.118Z,89.10
2023-10-29T10:33:39.446Z,89.30
2023-10-29T10:38:54.415Z,89.30
2023-10-29T10:44:10.424Z,89.50
2023-10-29T10:49:15.707Z,89.60
2023-10-29T10:54:20.204Z,89.60
2023-10-29T10:59:24.237Z,89.70
2023-10-29T11:04:30.504Z,89.60
2023-10-29T11:09:34.125Z,89.60
2023-10-29T11:14:37.617Z,89.50
2023-10-29T11:19:47.381Z,89.90
2023-10-29T11:25:29.518Z,90.20
2023-10-29T11:30:32.997Z,90.40
2023-10-29T11:35:38.291Z,90.50
2023-10-29T11:40:41.724Z,90.50
2023-10-29T11:45:57.722Z,90.50
2023-10-29T11:51:22.738Z,90.90
2023-10-29T11:56:29.313Z,90.80
2023-10-29T12:01:32.739Z,90.50
2023-10-29T12:06:42.002Z,90.40
2023-10-29T12:11:45.567Z,90.50
2023-10-29T12:16:49.145Z,90.30
2023-10-29T12:21:54.470Z,90.30
2023-10-29T12:26:57.995Z,90.10
2023-10-29T12:32:01.448Z,90.20
2023-10-29T12:37:06.500Z,90.10
2023-10-29T12:42:09.927Z,90.10
2023-10-29T12:47:18.285Z,90.00
2023-10-29T12:52:23.236Z,89.80
2023-10-29T12:57:26.669Z,89.50
2023-10-29T13:02:30.135Z,89.30
2023-10-29T13:07:35.797Z,89.90
2023-10-29T13:12:39.231Z,89.70
2023-10-29T13:17:42.787Z,89.40
2023-10-29T13:22:48.072Z,89.20
2023-10-29T13:27:51.484Z,89.30
2023-10-29T13:32:55.069Z,89.20
2023-10-29T13:38:00.395Z,88.90
2023-10-29T13:43:03.941Z,89.00
2023-10-29T13:48:08.381Z,88.80
2023-10-29T13:53:13.259Z,88.80
2023-10-29T13:58:16.725Z,89.00
2023-10-29T14:03:20.290Z,89.00
2023-10-29T14:08:26.012Z,88.70
2023-10-29T14:13:29.951Z,88.40
2023-10-29T14:18:33.419Z,88.70
2023-10-29T14:23:38.351Z,88.50
2023-10-29T14:28:41.779Z,88.30
2023-10-29T14:33:45.217Z,88.20
2023-10-29T14:38:50.052Z,87.90
2023-10-29T14:43:53.461Z,88.10
2023-10-29T14:48:56.868Z,88.00
2023-10-29T14:54:01.884Z,88.00
2023-10-29T14:59:08.776Z,88.00
2023-10-29T15:04:12.552Z,87.60
2023-10-29T15:09:19.047Z,87.80
2023-10-29T15:14:22.854Z,87.50
2023-10-29T15:19:36.526Z,87.30
2023-10-29T15:24:41.943Z,87.50
2023-10-29T15:29:47.599Z,87.40
2023-10-29T15:34:51.031Z,87.50
2023-10-29T15:39:56.840Z,87.50
2023-10-29T15:45:00.276Z,87.50
2023-10-29T15:50:04.666Z,87.50
2023-10-29T15:55:10.288Z,87.40
2023-10-29T16:00:14.932Z,87.70
2023-10-29T16:05:20.663Z,87.30
2023-10-29T16:10:25.460Z,87.40
2023-10-29T16:15:29.028Z,87.70
2023-10-29T16:20:32.442Z,87.80
2023-10-29T16:25:37.234Z,87.90
2023-10-29T16:30:41.444Z,87.70
2023-10-29T16:35:44.834Z,87.40
2023-10-29T16:40:51.472Z,87.40
2023-10-29T16:45:54.942Z,87.20
2023-10-29T16:51:03.611Z,87.20
2023-10-29T16:56:12.229Z,87.30
2023-10-29T17:01:15.811Z,87.60
2023-10-29T17:06:19.366Z,87.60
2023-10-29T17:11:24.463Z,87.40
2023-10-29T17:16:27.922Z,87.50
2023-10-29T17:21:31.407Z,87.60
2023-10-29T17:26:36.279Z,87.90
2023-10-29T17:31:39.695Z,87.70
2023-10-29T17:36:43.213Z,87.70
2023-10-29T17:41:48.043Z,87.60
2023-10-29T17:46:51.494Z,87.90
2023-10-29T17:51:54.960Z,87.60
2023-10-29T17:56:59.767Z,87.60
2023-10-29T18:02:03.387Z,87.80
2023-10-29T18:07:07.341Z,87.70
2023-10-29T18:12:12.252Z,87.80
2023-10-29T18:17:15.710Z,87.70
2023-10-29T18:22:19.118Z,87.70
2023-10-29T18:27:25.817Z,88.10
2023-10-29T18:32:29.343Z,88.20
2023-10-29T18:37:33.014Z,88.10
2023-10-29T18:42:37.899Z,88.20
2023-10-29T18:47:41.359Z,88.20
2023-10-29T18:52:44.824Z,88.20
2023-10-29T18:57:49.908Z,88.50
2023-10-29T19:02:53.431Z,88.60
2023-10-29T19:07:56.906Z,88.30
2023-10-29T19:13:01.774Z,88.50
2023-10-29T19:18:05.346Z,88.40
2023-10-29T19:23:08.788Z,88.60
2023-10-29T19:28:13.610Z,88.30
2023-10-29T19:33:17.016Z,88.50
2023-10-29T19:38:20.646Z,88.10
2023-10-29T19:43:25.541Z,88.60
2023-10-29T19:48:30.522Z,88.20
2023-10-29T19:53:34.965Z,88.50
2023-10-29T19:58:39.831Z,88.60
2023-10-29T20:03:43.365Z,88.50
2023-10-29T20:08:46.840Z,88.20
2023-10-29T20:13:51.997Z,88.40
2023-10-29T20:18:57.322Z,88.50
2023-10-29T20:24:00.806Z,88.60
2023-10-29T20:29:05.628Z,88.70
2023-10-29T20:34:09.108Z,88.40
2023-10-29T20:39:12.896Z,88.60
2023-10-29T20:44:17.709Z,88.40
2023-10-29T20:49:21.211Z,88.00
2023-10-29T20:54:24.699Z,88.40
2023-10-29T20:59:29.575Z,88.30
2023-10-29T21:04:33.079Z,88.40
2023-10-29T21:09:36.658Z,88.60
2023-10-29T21:14:41.475Z,87.90
2023-10-29T21:19:44.859Z,88.30
2023-10-29T21:24:48.314Z,88.40
2023-10-29T21:29:53.650Z,88.50
2023-10-29T21:34:57.072Z,88.50
2023-10-29T21:40:00.563Z,88.50
2023-10-29T21:45:06.178Z,88.40
2023-10-29T21:50:11.198Z,88.40
2023-10-29T21:55:14.618Z,88.30
2023-10-29T22:00:20.006Z,88.40
2023-10-29T22:05:23.414Z,88.50
2023-10-29T22:10:26.915Z,88.40
2023-10-29T22:15:31.915Z,88.40
2023-10-29T22:20:35.325Z,88.10
2023-10-29T22:25:38.811Z,88.50
2023-10-29T22:30:43.773Z,88.50
2023-10-29T22:35:47.290Z,88.20
2023-10-29T22:40:50.775Z,88.40
2023-10-29T22:45:55.676Z,88.40
2023-10-29T22:50:59.268Z,88.10
2023-10-29T22:56:02.774Z,88.10
2023-10-29T23:01:10.086Z,88.20
2023-10-29T23:06:14.196Z,88.10
2023-10-29T23:11:18.109Z,87.80
2023-10-29T23:16:22.954Z,88.00
2023-10-29T23:21:27.392Z,88.10
2023-10-29T23:26:32.679Z,87.80
2023-10-29T23:31:37.738Z,87.90
2023-10-29T23:36:41.261Z,87.80
2023-10-29T23:41:44.741Z,87.80
2023-10-29T23:46:49.879Z,87.70
2023-10-29T23:51:53.341Z,87.80
2023-10-29T23:56:56.758Z,87.80
